sensor_id;sensor_type;location;lat;lon;timestamp;P1;durP1;ratioP1;P2;durP2;ratioP2
8803;SDS011;4438;50.890;4.726;2022-07-23T00:02:11;11.40;;;10.40;;
8803;SDS011;4438;50.890;4.726;2022-07-23T00:04:37;10.77;;;9.77;;
8803;SDS011;4438;50.890;4.726;2022-07-23T00:07:03;12.33;;;11.20;;
8803;SDS011;4438;50.890;4.726;2022-07-23T00:09:29;11.30;;;10.23;;
8803;SDS011;4438;50.890;4.726;2022-07-23T00:11:56;11.30;;;10.20;;
8803;SDS011;4438;50.890;4.726;2022-07-23T00:14:22;12.27;;;11.07;;
8803;SDS011;4438;50.890;4.726;2022-07-23T00:16:48;11.23;;;10.17;;
8803;SDS011;4438;50.890;4.726;2022-07-23T00:19:15;12.10;;;11.00;;
8803;SDS011;4438;50.890;4.726;2022-07-23T00:21:41;11.13;;;10.13;;
8803;SDS011;4438;50.890;4.726;2022-07-23T00:24:07;14.10;;;11.80;;
8803;SDS011;4438;50.890;4.726;2022-07-23T00:26:33;11.20;;;10.20;;
8803;SDS011;4438;50.890;4.726;2022-07-23T00:28:59;11.67;;;10.47;;
8803;SDS011;4438;50.890;4.726;2022-07-23T00:31:25;11.50;;;10.50;;
8803;SDS011;4438;50.890;4.726;2022-07-23T00:33:52;11.03;;;10.03;;
8803;SDS011;4438;50.890;4.726;2022-07-23T00:36:22;11.80;;;10.77;;
8803;SDS011;4438;50.890;4.726;2022-07-23T00:38:49;12.00;;;10.93;;
8803;SDS011;4438;50.890;4.726;2022-07-23T00:41:15;11.57;;;10.53;;
8803;SDS011;4438;50.890;4.726;2022-07-23T00:43:41;12.23;;;11.13;;
8803;SDS011;4438;50.890;4.726;2022-07-23T00:46:07;11.37;;;10.37;;
8803;SDS011;4438;50.890;4.726;2022-07-23T00:48:34;11.20;;;10.20;;
8803;SDS011;4438;50.890;4.726;2022-07-23T00:51:00;11.33;;;10.33;;
8803;SDS011;4438;50.890;4.726;2022-07-23T00:53:26;11.37;;;10.37;;
8803;SDS011;4438;50.890;4.726;2022-07-23T00:55:53;11.50;;;10.40;;
8803;SDS011;4438;50.890;4.726;2022-07-23T00:58:19;11.57;;;10.53;;
8803;SDS011;4438;50.890;4.726;2022-07-23T01:00:45;12.63;;;11.43;;
8803;SDS011;4438;50.890;4.726;2022-07-23T01:03:11;12.63;;;11.37;;
8803;SDS011;4438;50.890;4.726;2022-07-23T01:05:37;10.67;;;9.77;;
8803;SDS011;4438;50.890;4.726;2022-07-23T01:08:05;11.53;;;10.37;;
8803;SDS011;4438;50.890;4.726;2022-07-23T01:10:32;11.73;;;10.60;;
8803;SDS011;4438;50.890;4.726;2022-07-23T01:12:59;11.17;;;10.17;;
8803;SDS011;4438;50.890;4.726;2022-07-23T01:15:25;12.23;;;11.03;;
8803;SDS011;4438;50.890;4.726;2022-07-23T01:17:51;10.97;;;9.93;;
8803;SDS011;4438;50.890;4.726;2022-07-23T01:20:18;11.67;;;10.67;;
8803;SDS011;4438;50.890;4.726;2022-07-23T01:22:45;12.20;;;11.03;;
8803;SDS011;4438;50.890;4.726;2022-07-23T01:25:11;11.90;;;10.80;;
8803;SDS011;4438;50.890;4.726;2022-07-23T01:27:37;11.90;;;10.77;;
8803;SDS011;4438;50.890;4.726;2022-07-23T01:30:03;11.70;;;10.47;;
8803;SDS011;4438;50.890;4.726;2022-07-23T01:32:30;11.53;;;10.43;;
8803;SDS011;4438;50.890;4.726;2022-07-23T01:34:56;12.30;;;11.13;;
8803;SDS011;4438;50.890;4.726;2022-07-23T01:37:22;12.80;;;11.60;;
8803;SDS011;4438;50.890;4.726;2022-07-23T01:39:48;12.27;;;11.13;;
8803;SDS011;4438;50.890;4.726;2022-07-23T01:42:14;12.17;;;11.07;;
8803;SDS011;4438;50.890;4.726;2022-07-23T01:44:40;12.97;;;11.67;;
8803;SDS011;4438;50.890;4.726;2022-07-23T01:47:06;12.73;;;11.50;;
8803;SDS011;4438;50.890;4.726;2022-07-23T01:49:33;12.63;;;11.43;;
8803;SDS011;4438;50.890;4.726;2022-07-23T01:51:59;12.27;;;11.17;;
8803;SDS011;4438;50.890;4.726;2022-07-23T01:54:25;11.80;;;10.80;;
8803;SDS011;4438;50.890;4.726;2022-07-23T01:56:52;12.27;;;11.03;;
8803;SDS011;4438;50.890;4.726;2022-07-23T01:59:18;12.10;;;11.00;;
8803;SDS011;4438;50.890;4.726;2022-07-23T02:01:44;12.07;;;10.87;;
8803;SDS011;4438;50.890;4.726;2022-07-23T02:04:10;12.30;;;11.20;;
8803;SDS011;4438;50.890;4.726;2022-07-23T02:06:36;11.73;;;10.63;;
8803;SDS011;4438;50.890;4.726;2022-07-23T02:09:02;11.40;;;10.40;;
8803;SDS011;4438;50.890;4.726;2022-07-23T02:11:28;12.80;;;11.60;;
8803;SDS011;4438;50.890;4.726;2022-07-23T02:13:54;12.77;;;11.47;;
8803;SDS011;4438;50.890;4.726;2022-07-23T02:16:20;14.10;;;12.80;;
8803;SDS011;4438;50.890;4.726;2022-07-23T02:18:46;12.27;;;11.13;;
8803;SDS011;4438;50.890;4.726;2022-07-23T02:21:12;12.57;;;11.27;;
8803;SDS011;4438;50.890;4.726;2022-07-23T02:23:39;12.17;;;11.00;;
8803;SDS011;4438;50.890;4.726;2022-07-23T02:26:05;13.23;;;12.03;;
8803;SDS011;4438;50.890;4.726;2022-07-23T02:28:31;12.90;;;11.80;;
8803;SDS011;4438;50.890;4.726;2022-07-23T02:30:57;12.93;;;11.63;;
8803;SDS011;4438;50.890;4.726;2022-07-23T02:33:23;14.03;;;12.47;;
8803;SDS011;4438;50.890;4.726;2022-07-23T02:35:49;14.70;;;13.40;;
8803;SDS011;4438;50.890;4.726;2022-07-23T02:38:15;13.33;;;12.13;;
8803;SDS011;4438;50.890;4.726;2022-07-23T02:40:41;13.00;;;11.80;;
8803;SDS011;4438;50.890;4.726;2022-07-23T02:43:07;13.37;;;12.03;;
8803;SDS011;4438;50.890;4.726;2022-07-23T02:45:33;13.30;;;12.03;;
8803;SDS011;4438;50.890;4.726;2022-07-23T02:47:59;13.07;;;11.80;;
8803;SDS011;4438;50.890;4.726;2022-07-23T02:50:25;12.10;;;11.03;;
8803;SDS011;4438;50.890;4.726;2022-07-23T02:52:52;12.57;;;11.30;;
8803;SDS011;4438;50.890;4.726;2022-07-23T02:55:18;13.27;;;12.07;;
8803;SDS011;4438;50.890;4.726;2022-07-23T02:57:44;12.07;;;11.07;;
8803;SDS011;4438;50.890;4.726;2022-07-23T03:00:10;12.10;;;11.00;;
8803;SDS011;4438;50.890;4.726;2022-07-23T03:02:36;12.73;;;11.63;;
8803;SDS011;4438;50.890;4.726;2022-07-23T03:05:02;12.90;;;11.60;;
8803;SDS011;4438;50.890;4.726;2022-07-23T03:07:28;13.00;;;11.73;;
8803;SDS011;4438;50.890;4.726;2022-07-23T03:09:54;12.50;;;11.17;;
8803;SDS011;4438;50.890;4.726;2022-07-23T03:12:21;13.03;;;11.73;;
8803;SDS011;4438;50.890;4.726;2022-07-23T03:14:47;12.77;;;11.57;;
8803;SDS011;4438;50.890;4.726;2022-07-23T03:17:13;12.53;;;11.43;;
8803;SDS011;4438;50.890;4.726;2022-07-23T03:19:39;12.33;;;11.23;;
8803;SDS011;4438;50.890;4.726;2022-07-23T03:22:05;12.97;;;11.67;;
8803;SDS011;4438;50.890;4.726;2022-07-23T03:24:31;13.03;;;11.90;;
8803;SDS011;4438;50.890;4.726;2022-07-23T03:27:16;13.07;;;11.87;;
8803;SDS011;4438;50.890;4.726;2022-07-23T03:29:42;13.33;;;11.93;;
8803;SDS011;4438;50.890;4.726;2022-07-23T03:32:08;12.43;;;11.23;;
8803;SDS011;4438;50.890;4.726;2022-07-23T03:34:34;12.43;;;11.33;;
8803;SDS011;4438;50.890;4.726;2022-07-23T03:37:01;11.37;;;10.27;;
8803;SDS011;4438;50.890;4.726;2022-07-23T03:39:27;11.83;;;10.63;;
8803;SDS011;4438;50.890;4.726;2022-07-23T03:41:53;12.93;;;11.73;;
8803;SDS011;4438;50.890;4.726;2022-07-23T03:44:19;11.67;;;10.57;;
8803;SDS011;4438;50.890;4.726;2022-07-23T03:46:45;11.30;;;10.40;;
8803;SDS011;4438;50.890;4.726;2022-07-23T03:49:12;10.80;;;9.73;;
8803;SDS011;4438;50.890;4.726;2022-07-23T03:51:38;11.73;;;10.57;;
8803;SDS011;4438;50.890;4.726;2022-07-23T03:54:04;12.43;;;11.20;;
8803;SDS011;4438;50.890;4.726;2022-07-23T03:56:30;12.23;;;11.00;;
8803;SDS011;4438;50.890;4.726;2022-07-23T03:58:56;12.63;;;11.40;;
8803;SDS011;4438;50.890;4.726;2022-07-23T04:01:22;11.80;;;10.70;;
8803;SDS011;4438;50.890;4.726;2022-07-23T04:03:48;11.40;;;10.40;;
8803;SDS011;4438;50.890;4.726;2022-07-23T04:06:14;11.70;;;10.60;;
8803;SDS011;4438;50.890;4.726;2022-07-23T04:08:40;11.00;;;10.00;;
8803;SDS011;4438;50.890;4.726;2022-07-23T04:11:06;11.90;;;10.80;;
8803;SDS011;4438;50.890;4.726;2022-07-23T04:13:32;12.13;;;10.93;;
8803;SDS011;4438;50.890;4.726;2022-07-23T04:15:58;12.07;;;10.90;;
8803;SDS011;4438;50.890;4.726;2022-07-23T04:18:24;11.83;;;10.83;;
8803;SDS011;4438;50.890;4.726;2022-07-23T04:20:51;11.93;;;10.80;;
8803;SDS011;4438;50.890;4.726;2022-07-23T04:23:17;11.47;;;10.20;;
8803;SDS011;4438;50.890;4.726;2022-07-23T04:25:43;12.50;;;11.40;;
8803;SDS011;4438;50.890;4.726;2022-07-23T04:28:09;11.70;;;10.57;;
8803;SDS011;4438;50.890;4.726;2022-07-23T04:30:35;11.77;;;10.57;;
8803;SDS011;4438;50.890;4.726;2022-07-23T04:33:02;11.37;;;10.23;;
8803;SDS011;4438;50.890;4.726;2022-07-23T04:35:32;11.83;;;10.63;;
8803;SDS011;4438;50.890;4.726;2022-07-23T04:37:58;11.63;;;10.53;;
8803;SDS011;4438;50.890;4.726;2022-07-23T04:40:24;12.03;;;10.87;;
8803;SDS011;4438;50.890;4.726;2022-07-23T04:42:50;12.57;;;11.37;;
8803;SDS011;4438;50.890;4.726;2022-07-23T04:45:16;12.70;;;11.40;;
8803;SDS011;4438;50.890;4.726;2022-07-23T04:47:43;13.47;;;12.17;;
8803;SDS011;4438;50.890;4.726;2022-07-23T04:50:09;14.70;;;13.30;;
8803;SDS011;4438;50.890;4.726;2022-07-23T04:52:35;13.73;;;12.43;;
8803;SDS011;4438;50.890;4.726;2022-07-23T04:55:01;17.63;;;16.00;;
8803;SDS011;4438;50.890;4.726;2022-07-23T04:57:27;16.00;;;14.60;;
8803;SDS011;4438;50.890;4.726;2022-07-23T04:59:53;16.33;;;14.83;;
8803;SDS011;4438;50.890;4.726;2022-07-23T05:02:19;15.77;;;14.27;;
8803;SDS011;4438;50.890;4.726;2022-07-23T05:04:46;15.97;;;14.47;;
8803;SDS011;4438;50.890;4.726;2022-07-23T05:07:12;16.67;;;15.00;;
8803;SDS011;4438;50.890;4.726;2022-07-23T05:09:38;16.47;;;14.97;;
8803;SDS011;4438;50.890;4.726;2022-07-23T05:12:04;16.43;;;14.97;;
8803;SDS011;4438;50.890;4.726;2022-07-23T05:14:30;17.47;;;15.77;;
8803;SDS011;4438;50.890;4.726;2022-07-23T05:16:56;16.67;;;15.13;;
8803;SDS011;4438;50.890;4.726;2022-07-23T05:19:23;17.10;;;15.50;;
8803;SDS011;4438;50.890;4.726;2022-07-23T05:21:49;16.40;;;14.90;;
8803;SDS011;4438;50.890;4.726;2022-07-23T05:24:15;17.17;;;15.57;;
8803;SDS011;4438;50.890;4.726;2022-07-23T05:26:41;17.43;;;15.63;;
8803;SDS011;4438;50.890;4.726;2022-07-23T05:29:07;18.13;;;16.43;;
8803;SDS011;4438;50.890;4.726;2022-07-23T05:31:33;16.87;;;15.40;;
8803;SDS011;4438;50.890;4.726;2022-07-23T05:33:59;16.73;;;15.13;;
8803;SDS011;4438;50.890;4.726;2022-07-23T05:36:25;17.50;;;15.90;;
8803;SDS011;4438;50.890;4.726;2022-07-23T05:38:52;17.77;;;16.07;;
8803;SDS011;4438;50.890;4.726;2022-07-23T05:41:18;17.80;;;16.10;;
8803;SDS011;4438;50.890;4.726;2022-07-23T05:43:44;17.37;;;15.77;;
8803;SDS011;4438;50.890;4.726;2022-07-23T05:46:10;17.43;;;15.83;;
8803;SDS011;4438;50.890;4.726;2022-07-23T05:48:36;17.67;;;15.97;;
8803;SDS011;4438;50.890;4.726;2022-07-23T05:51:07;17.37;;;15.67;;
8803;SDS011;4438;50.890;4.726;2022-07-23T05:53:33;18.53;;;16.57;;
8803;SDS011;4438;50.890;4.726;2022-07-23T05:55:59;16.37;;;14.87;;
8803;SDS011;4438;50.890;4.726;2022-07-23T05:58:26;16.67;;;15.10;;
8803;SDS011;4438;50.890;4.726;2022-07-23T06:00:52;16.50;;;15.10;;
8803;SDS011;4438;50.890;4.726;2022-07-23T06:03:18;17.27;;;15.60;;
8803;SDS011;4438;50.890;4.726;2022-07-23T06:05:45;15.97;;;14.37;;
8803;SDS011;4438;50.890;4.726;2022-07-23T06:08:11;15.87;;;14.40;;
8803;SDS011;4438;50.890;4.726;2022-07-23T06:10:37;15.57;;;13.97;;
8803;SDS011;4438;50.890;4.726;2022-07-23T06:13:03;16.60;;;14.80;;
8803;SDS011;4438;50.890;4.726;2022-07-23T06:15:29;17.10;;;15.60;;
8803;SDS011;4438;50.890;4.726;2022-07-23T06:17:55;17.30;;;15.70;;
8803;SDS011;4438;50.890;4.726;2022-07-23T06:20:21;16.13;;;14.53;;
8803;SDS011;4438;50.890;4.726;2022-07-23T06:22:47;15.60;;;14.13;;
8803;SDS011;4438;50.890;4.726;2022-07-23T06:25:13;17.33;;;15.73;;
8803;SDS011;4438;50.890;4.726;2022-07-23T06:27:41;17.57;;;15.97;;
8803;SDS011;4438;50.890;4.726;2022-07-23T06:30:09;16.53;;;15.03;;
8803;SDS011;4438;50.890;4.726;2022-07-23T06:32:35;16.50;;;15.00;;
8803;SDS011;4438;50.890;4.726;2022-07-23T06:35:01;17.03;;;15.43;;
8803;SDS011;4438;50.890;4.726;2022-07-23T06:37:27;17.90;;;15.80;;
8803;SDS011;4438;50.890;4.726;2022-07-23T06:39:53;16.07;;;14.67;;
8803;SDS011;4438;50.890;4.726;2022-07-23T06:42:19;17.10;;;15.50;;
8803;SDS011;4438;50.890;4.726;2022-07-23T06:44:45;16.63;;;15.20;;
8803;SDS011;4438;50.890;4.726;2022-07-23T06:47:12;17.63;;;15.93;;
8803;SDS011;4438;50.890;4.726;2022-07-23T06:49:38;18.10;;;15.63;;
8803;SDS011;4438;50.890;4.726;2022-07-23T06:52:06;15.50;;;14.10;;
8803;SDS011;4438;50.890;4.726;2022-07-23T06:54:34;17.40;;;15.70;;
8803;SDS011;4438;50.890;4.726;2022-07-23T06:57:00;16.10;;;14.60;;
8803;SDS011;4438;50.890;4.726;2022-07-23T06:59:27;16.60;;;15.20;;
8803;SDS011;4438;50.890;4.726;2022-07-23T07:01:53;16.80;;;15.17;;
8803;SDS011;4438;50.890;4.726;2022-07-23T07:04:19;17.20;;;15.67;;
8803;SDS011;4438;50.890;4.726;2022-07-23T07:06:45;18.63;;;16.93;;
8803;SDS011;4438;50.890;4.726;2022-07-23T07:09:11;16.67;;;15.17;;
8803;SDS011;4438;50.890;4.726;2022-07-23T07:11:37;16.90;;;15.40;;
8803;SDS011;4438;50.890;4.726;2022-07-23T07:14:03;17.00;;;15.50;;
8803;SDS011;4438;50.890;4.726;2022-07-23T07:16:29;18.07;;;16.43;;
8803;SDS011;4438;50.890;4.726;2022-07-23T07:18:55;16.10;;;14.70;;
8803;SDS011;4438;50.890;4.726;2022-07-23T07:21:22;17.07;;;15.53;;
8803;SDS011;4438;50.890;4.726;2022-07-23T07:23:48;17.40;;;15.70;;
8803;SDS011;4438;50.890;4.726;2022-07-23T07:26:14;17.27;;;15.43;;
8803;SDS011;4438;50.890;4.726;2022-07-23T07:28:40;16.53;;;14.93;;
8803;SDS011;4438;50.890;4.726;2022-07-23T07:31:06;16.13;;;14.70;;
8803;SDS011;4438;50.890;4.726;2022-07-23T07:33:32;17.63;;;15.93;;
8803;SDS011;4438;50.890;4.726;2022-07-23T07:35:58;15.70;;;14.30;;
8803;SDS011;4438;50.890;4.726;2022-07-23T07:38:25;16.37;;;14.67;;
8803;SDS011;4438;50.890;4.726;2022-07-23T07:40:51;17.70;;;15.90;;
8803;SDS011;4438;50.890;4.726;2022-07-23T07:43:17;14.67;;;13.37;;
8803;SDS011;4438;50.890;4.726;2022-07-23T07:45:43;15.37;;;13.97;;
8803;SDS011;4438;50.890;4.726;2022-07-23T07:48:10;17.00;;;15.30;;
8803;SDS011;4438;50.890;4.726;2022-07-23T07:50:36;13.83;;;12.50;;
8803;SDS011;4438;50.890;4.726;2022-07-23T07:53:02;18.53;;;14.23;;
8803;SDS011;4438;50.890;4.726;2022-07-23T07:55:28;16.20;;;13.37;;
8803;SDS011;4438;50.890;4.726;2022-07-23T07:57:54;15.43;;;13.83;;
8803;SDS011;4438;50.890;4.726;2022-07-23T08:00:20;14.00;;;12.57;;
8803;SDS011;4438;50.890;4.726;2022-07-23T08:02:47;13.77;;;12.37;;
8803;SDS011;4438;50.890;4.726;2022-07-23T08:05:14;13.87;;;11.73;;
8803;SDS011;4438;50.890;4.726;2022-07-23T08:07:40;14.57;;;11.77;;
8803;SDS011;4438;50.890;4.726;2022-07-23T08:10:07;11.73;;;10.63;;
8803;SDS011;4438;50.890;4.726;2022-07-23T08:12:40;13.30;;;12.03;;
8803;SDS011;4438;50.890;4.726;2022-07-23T08:15:07;13.13;;;11.77;;
8803;SDS011;4438;50.890;4.726;2022-07-23T08:17:34;13.03;;;11.63;;
8803;SDS011;4438;50.890;4.726;2022-07-23T08:20:00;13.07;;;11.77;;
8803;SDS011;4438;50.890;4.726;2022-07-23T08:22:40;13.00;;;11.67;;
8803;SDS011;4438;50.890;4.726;2022-07-23T08:25:06;12.97;;;11.17;;
8803;SDS011;4438;50.890;4.726;2022-07-23T08:27:32;12.00;;;10.90;;
8803;SDS011;4438;50.890;4.726;2022-07-23T08:29:59;12.97;;;10.27;;
8803;SDS011;4438;50.890;4.726;2022-07-23T08:32:25;12.40;;;10.20;;
8803;SDS011;4438;50.890;4.726;2022-07-23T08:34:51;11.47;;;10.47;;
8803;SDS011;4438;50.890;4.726;2022-07-23T08:37:17;12.13;;;10.80;;
8803;SDS011;4438;50.890;4.726;2022-07-23T08:39:43;12.10;;;10.07;;
8803;SDS011;4438;50.890;4.726;2022-07-23T08:42:09;12.20;;;10.10;;
8803;SDS011;4438;50.890;4.726;2022-07-23T08:44:35;11.80;;;9.00;;
8803;SDS011;4438;50.890;4.726;2022-07-23T08:47:01;11.40;;;10.20;;
8803;SDS011;4438;50.890;4.726;2022-07-23T08:49:28;11.20;;;10.03;;
8803;SDS011;4438;50.890;4.726;2022-07-23T08:51:55;10.43;;;8.03;;
8803;SDS011;4438;50.890;4.726;2022-07-23T08:54:21;10.30;;;8.57;;
8803;SDS011;4438;50.890;4.726;2022-07-23T08:56:48;8.70;;;7.80;;
8803;SDS011;4438;50.890;4.726;2022-07-23T08:59:14;9.43;;;7.37;;
8803;SDS011;4438;50.890;4.726;2022-07-23T09:01:40;8.17;;;7.40;;
8803;SDS011;4438;50.890;4.726;2022-07-23T09:04:06;9.27;;;7.93;;
8803;SDS011;4438;50.890;4.726;2022-07-23T09:06:32;10.20;;;7.60;;
8803;SDS011;4438;50.890;4.726;2022-07-23T09:08:58;9.93;;;8.93;;
8803;SDS011;4438;50.890;4.726;2022-07-23T09:11:45;8.33;;;7.53;;
8803;SDS011;4438;50.890;4.726;2022-07-23T09:14:11;8.40;;;7.53;;
8803;SDS011;4438;50.890;4.726;2022-07-23T09:16:37;8.00;;;7.20;;
8803;SDS011;4438;50.890;4.726;2022-07-23T09:19:04;7.20;;;6.60;;
8803;SDS011;4438;50.890;4.726;2022-07-23T09:21:31;7.33;;;6.43;;
8803;SDS011;4438;50.890;4.726;2022-07-23T09:31:22;6.57;;;5.73;;
8803;SDS011;4438;50.890;4.726;2022-07-23T09:33:49;26.67;;;8.83;;
8803;SDS011;4438;50.890;4.726;2022-07-23T09:36:15;25.00;;;9.17;;
8803;SDS011;4438;50.890;4.726;2022-07-23T09:38:47;19.73;;;8.40;;
8803;SDS011;4438;50.890;4.726;2022-07-23T09:41:14;18.50;;;6.80;;
8803;SDS011;4438;50.890;4.726;2022-07-23T09:43:40;12.10;;;6.43;;
8803;SDS011;4438;50.890;4.726;2022-07-23T09:46:22;16.43;;;6.60;;
8803;SDS011;4438;50.890;4.726;2022-07-23T09:48:49;73.20;;;16.70;;
8803;SDS011;4438;50.890;4.726;2022-07-23T09:51:16;70.47;;;14.83;;
8803;SDS011;4438;50.890;4.726;2022-07-23T09:53:55;6.97;;;6.37;;
8803;SDS011;4438;50.890;4.726;2022-07-23T09:56:21;67.87;;;16.77;;
8803;SDS011;4438;50.890;4.726;2022-07-23T09:58:49;16.07;;;7.90;;
8803;SDS011;4438;50.890;4.726;2022-07-23T10:01:17;7.27;;;6.53;;
8803;SDS011;4438;50.890;4.726;2022-07-23T10:03:45;7.17;;;6.37;;
8803;SDS011;4438;50.890;4.726;2022-07-23T10:06:12;8.23;;;5.30;;
8803;SDS011;4438;50.890;4.726;2022-07-23T10:08:40;7.53;;;5.27;;
8803;SDS011;4438;50.890;4.726;2022-07-23T10:11:07;8.37;;;4.77;;
8803;SDS011;4438;50.890;4.726;2022-07-23T10:13:34;4.97;;;4.43;;
8803;SDS011;4438;50.890;4.726;2022-07-23T10:16:18;5.07;;;4.60;;
8803;SDS011;4438;50.890;4.726;2022-07-23T10:18:45;5.57;;;4.97;;
8803;SDS011;4438;50.890;4.726;2022-07-23T10:21:11;4.70;;;4.30;;
8803;SDS011;4438;50.890;4.726;2022-07-23T10:23:40;6.03;;;4.70;;
8803;SDS011;4438;50.890;4.726;2022-07-23T10:26:15;4.90;;;4.30;;
8803;SDS011;4438;50.890;4.726;2022-07-23T10:34:03;5.03;;;4.27;;
8803;SDS011;4438;50.890;4.726;2022-07-23T10:39:28;5.53;;;4.50;;
8803;SDS011;4438;50.890;4.726;2022-07-23T10:42:16;4.93;;;4.00;;
8803;SDS011;4438;50.890;4.726;2022-07-23T10:44:43;4.27;;;3.97;;
8803;SDS011;4438;50.890;4.726;2022-07-23T10:47:10;4.00;;;3.60;;
8803;SDS011;4438;50.890;4.726;2022-07-23T10:49:36;3.50;;;3.20;;
8803;SDS011;4438;50.890;4.726;2022-07-23T10:52:15;3.83;;;3.53;;
8803;SDS011;4438;50.890;4.726;2022-07-23T10:57:27;4.13;;;3.73;;
8803;SDS011;4438;50.890;4.726;2022-07-23T11:02:34;4.03;;;3.63;;
8803;SDS011;4438;50.890;4.726;2022-07-23T11:05:07;3.93;;;3.17;;
8803;SDS011;4438;50.890;4.726;2022-07-23T11:07:34;4.20;;;3.77;;
8803;SDS011;4438;50.890;4.726;2022-07-23T11:10:00;3.90;;;3.60;;
8803;SDS011;4438;50.890;4.726;2022-07-23T11:17:20;3.57;;;3.27;;
8803;SDS011;4438;50.890;4.726;2022-07-23T11:22:35;3.67;;;3.10;;
8803;SDS011;4438;50.890;4.726;2022-07-23T11:25:01;3.60;;;3.30;;
8803;SDS011;4438;50.890;4.726;2022-07-23T11:27:37;3.50;;;3.20;;
8803;SDS011;4438;50.890;4.726;2022-07-23T11:30:04;4.30;;;3.60;;
8803;SDS011;4438;50.890;4.726;2022-07-23T11:32:31;3.43;;;3.23;;
8803;SDS011;4438;50.890;4.726;2022-07-23T11:35:00;3.03;;;2.73;;
8803;SDS011;4438;50.890;4.726;2022-07-23T11:37:27;3.20;;;2.90;;
8803;SDS011;4438;50.890;4.726;2022-07-23T11:39:54;3.27;;;2.60;;
8803;SDS011;4438;50.890;4.726;2022-07-23T11:42:20;3.70;;;3.40;;
8803;SDS011;4438;50.890;4.726;2022-07-23T11:44:48;3.90;;;3.30;;
8803;SDS011;4438;50.890;4.726;2022-07-23T11:47:14;2.80;;;2.60;;
8803;SDS011;4438;50.890;4.726;2022-07-23T11:49:57;3.13;;;2.80;;
8803;SDS011;4438;50.890;4.726;2022-07-23T11:52:23;3.20;;;2.90;;
8803;SDS011;4438;50.890;4.726;2022-07-23T11:54:51;3.83;;;3.30;;
8803;SDS011;4438;50.890;4.726;2022-07-23T11:57:17;3.13;;;2.83;;
8803;SDS011;4438;50.890;4.726;2022-07-23T11:59:45;4.53;;;2.90;;
8803;SDS011;4438;50.890;4.726;2022-07-23T12:02:11;5.90;;;2.70;;
8803;SDS011;4438;50.890;4.726;2022-07-23T12:04:42;3.80;;;2.67;;
8803;SDS011;4438;50.890;4.726;2022-07-23T12:09:54;7.38;;;3.35;;
8803;SDS011;4438;50.890;4.726;2022-07-23T12:12:21;3.47;;;3.17;;
8803;SDS011;4438;50.890;4.726;2022-07-23T12:14:51;4.20;;;3.20;;
8803;SDS011;4438;50.890;4.726;2022-07-23T12:17:18;3.40;;;3.10;;
8803;SDS011;4438;50.890;4.726;2022-07-23T12:19:44;24.75;;;6.00;;
8803;SDS011;4438;50.890;4.726;2022-07-23T12:22:11;11.07;;;4.43;;
8803;SDS011;4438;50.890;4.726;2022-07-23T12:24:55;7.70;;;3.07;;
8803;SDS011;4438;50.890;4.726;2022-07-23T12:27:22;31.10;;;6.05;;
8803;SDS011;4438;50.890;4.726;2022-07-23T12:29:48;6.57;;;3.90;;
8803;SDS011;4438;50.890;4.726;2022-07-23T12:32:19;14.98;;;3.95;;
8803;SDS011;4438;50.890;4.726;2022-07-23T12:34:47;12.63;;;3.53;;
8803;SDS011;4438;50.890;4.726;2022-07-23T12:37:26;19.17;;;3.95;;
8803;SDS011;4438;50.890;4.726;2022-07-23T12:39:53;4.78;;;3.40;;
8803;SDS011;4438;50.890;4.726;2022-07-23T12:42:19;4.32;;;3.67;;
8803;SDS011;4438;50.890;4.726;2022-07-23T12:47:54;3.97;;;3.60;;
8803;SDS011;4438;50.890;4.726;2022-07-23T12:53:03;8.80;;;3.40;;
8803;SDS011;4438;50.890;4.726;2022-07-23T12:55:29;48.67;;;8.13;;
8803;SDS011;4438;50.890;4.726;2022-07-23T12:58:03;57.17;;;9.48;;
8803;SDS011;4438;50.890;4.726;2022-07-23T13:00:30;110.93;;;14.63;;
8803;SDS011;4438;50.890;4.726;2022-07-23T13:02:56;24.35;;;5.93;;
8803;SDS011;4438;50.890;4.726;2022-07-23T13:05:22;12.77;;;4.10;;
8803;SDS011;4438;50.890;4.726;2022-07-23T13:07:48;29.05;;;6.70;;
8803;SDS011;4438;50.890;4.726;2022-07-23T13:10:14;13.85;;;4.32;;
8803;SDS011;4438;50.890;4.726;2022-07-23T13:12:40;23.80;;;5.50;;
8803;SDS011;4438;50.890;4.726;2022-07-23T13:15:06;6.22;;;3.65;;
8803;SDS011;4438;50.890;4.726;2022-07-23T13:17:32;14.30;;;4.43;;
8803;SDS011;4438;50.890;4.726;2022-07-23T13:19:59;29.50;;;6.53;;
8803;SDS011;4438;50.890;4.726;2022-07-23T13:22:25;6.18;;;3.78;;
8803;SDS011;4438;50.890;4.726;2022-07-23T13:24:51;9.98;;;4.32;;
8803;SDS011;4438;50.890;4.726;2022-07-23T13:27:17;4.72;;;3.30;;
8803;SDS011;4438;50.890;4.726;2022-07-23T13:29:43;4.03;;;3.30;;
8803;SDS011;4438;50.890;4.726;2022-07-23T13:32:09;4.32;;;3.20;;
8803;SDS011;4438;50.890;4.726;2022-07-23T13:34:35;5.40;;;3.20;;
8803;SDS011;4438;50.890;4.726;2022-07-23T13:37:01;27.15;;;5.88;;
8803;SDS011;4438;50.890;4.726;2022-07-23T13:39:27;14.73;;;4.55;;
8803;SDS011;4438;50.890;4.726;2022-07-23T13:41:53;16.25;;;4.82;;
8803;SDS011;4438;50.890;4.726;2022-07-23T13:44:19;57.22;;;8.60;;
8803;SDS011;4438;50.890;4.726;2022-07-23T13:46:45;57.45;;;8.70;;
8803;SDS011;4438;50.890;4.726;2022-07-23T13:49:12;40.88;;;6.85;;
8803;SDS011;4438;50.890;4.726;2022-07-23T13:51:38;17.17;;;5.18;;
8803;SDS011;4438;50.890;4.726;2022-07-23T13:54:04;4.88;;;3.40;;
8803;SDS011;4438;50.890;4.726;2022-07-23T13:56:30;3.40;;;3.10;;
8803;SDS011;4438;50.890;4.726;2022-07-23T13:58:56;7.80;;;4.07;;
8803;SDS011;4438;50.890;4.726;2022-07-23T14:01:22;9.45;;;4.22;;
8803;SDS011;4438;50.890;4.726;2022-07-23T14:03:48;5.80;;;3.60;;
8803;SDS011;4438;50.890;4.726;2022-07-23T14:06:14;12.43;;;4.00;;
8803;SDS011;4438;50.890;4.726;2022-07-23T14:08:40;28.92;;;6.85;;
8803;SDS011;4438;50.890;4.726;2022-07-23T14:11:06;11.85;;;4.75;;
8803;SDS011;4438;50.890;4.726;2022-07-23T14:13:32;31.45;;;7.63;;
8803;SDS011;4438;50.890;4.726;2022-07-23T14:15:59;34.22;;;6.97;;
8803;SDS011;4438;50.890;4.726;2022-07-23T14:18:25;4.05;;;3.03;;
8803;SDS011;4438;50.890;4.726;2022-07-23T14:20:51;5.47;;;3.85;;
8803;SDS011;4438;50.890;4.726;2022-07-23T14:23:17;5.88;;;3.83;;
8803;SDS011;4438;50.890;4.726;2022-07-23T14:25:43;5.47;;;3.95;;
8803;SDS011;4438;50.890;4.726;2022-07-23T14:28:09;6.07;;;4.10;;
8803;SDS011;4438;50.890;4.726;2022-07-23T14:30:37;6.07;;;3.50;;
8803;SDS011;4438;50.890;4.726;2022-07-23T14:33:03;8.63;;;4.03;;
8803;SDS011;4438;50.890;4.726;2022-07-23T14:35:29;3.72;;;3.42;;
8803;SDS011;4438;50.890;4.726;2022-07-23T14:37:55;3.75;;;3.45;;
8803;SDS011;4438;50.890;4.726;2022-07-23T14:40:22;4.40;;;3.20;;
8803;SDS011;4438;50.890;4.726;2022-07-23T14:42:48;3.80;;;3.50;;
8803;SDS011;4438;50.890;4.726;2022-07-23T14:45:14;3.80;;;3.47;;
8803;SDS011;4438;50.890;4.726;2022-07-23T14:47:40;3.83;;;3.53;;
8803;SDS011;4438;50.890;4.726;2022-07-23T14:50:07;3.78;;;3.47;;
8803;SDS011;4438;50.890;4.726;2022-07-23T14:52:33;4.05;;;3.70;;
8803;SDS011;4438;50.890;4.726;2022-07-23T14:54:59;3.60;;;3.30;;
8803;SDS011;4438;50.890;4.726;2022-07-23T14:57:26;3.72;;;3.47;;
8803;SDS011;4438;50.890;4.726;2022-07-23T14:59:52;3.72;;;3.42;;
8803;SDS011;4438;50.890;4.726;2022-07-23T15:02:18;5.70;;;4.10;;
8803;SDS011;4438;50.890;4.726;2022-07-23T15:04:44;3.88;;;3.60;;
8803;SDS011;4438;50.890;4.726;2022-07-23T15:07:10;4.18;;;3.78;;
8803;SDS011;4438;50.890;4.726;2022-07-23T15:09:36;4.38;;;4.03;;
8803;SDS011;4438;50.890;4.726;2022-07-23T15:12:02;4.13;;;3.60;;
8803;SDS011;4438;50.890;4.726;2022-07-23T15:14:28;4.30;;;3.90;;
8803;SDS011;4438;50.890;4.726;2022-07-23T15:16:54;4.68;;;3.80;;
8803;SDS011;4438;50.890;4.726;2022-07-23T15:19:20;5.13;;;4.10;;
8803;SDS011;4438;50.890;4.726;2022-07-23T15:21:47;4.90;;;4.50;;
8803;SDS011;4438;50.890;4.726;2022-07-23T15:24:13;3.72;;;3.42;;
8803;SDS011;4438;50.890;4.726;2022-07-23T15:26:39;4.45;;;4.15;;
8803;SDS011;4438;50.890;4.726;2022-07-23T15:29:05;4.70;;;4.30;;
8803;SDS011;4438;50.890;4.726;2022-07-23T15:31:32;4.80;;;4.40;;
8803;SDS011;4438;50.890;4.726;2022-07-23T15:33:58;4.40;;;4.10;;